sensor_id;sensor_type;location;lat;lon;timestamp;P1;durP1;ratioP1;P2;durP2;ratioP2
40931;SDS011;36257;46.052;12.540;2024-01-30T00:01:48;8.83;;;7.97;;
40931;SDS011;36257;46.052;12.540;2024-01-30T00:04:14;8.03;;;7.33;;
40931;SDS011;36257;46.052;12.540;2024-01-30T00:06:39;8.40;;;7.60;;
40931;SDS011;36257;46.052;12.540;2024-01-30T00:09:05;8.13;;;7.53;;
40931;SDS011;36257;46.052;12.540;2024-01-30T00:11:31;8.33;;;7.50;;
40931;SDS011;36257;46.052;12.540;2024-01-30T00:13:56;8.13;;;7.43;;
40931;SDS011;36257;46.052;12.540;2024-01-30T00:16:22;8.27;;;7.07;;
40931;SDS011;36257;46.052;12.540;2024-01-30T00:18:49;9.35;;;8.55;;
40931;SDS011;36257;46.052;12.540;2024-01-30T00:21:16;8.52;;;7.80;;
40931;SDS011;36257;46.052;12.540;2024-01-30T00:23:41;7.93;;;7.20;;
40931;SDS011;36257;46.052;12.540;2024-01-30T00:26:07;8.63;;;7.77;;
40931;SDS011;36257;46.052;12.540;2024-01-30T00:28:33;8.23;;;7.43;;
40931;SDS011;36257;46.052;12.540;2024-01-30T00:30:58;8.07;;;7.37;;
40931;SDS011;36257;46.052;12.540;2024-01-30T00:33:24;8.90;;;8.20;;
40931;SDS011;36257;46.052;12.540;2024-01-30T00:35:49;12.70;;;9.90;;
40931;SDS011;36257;46.052;12.540;2024-01-30T00:38:15;24.97;;;14.03;;
40931;SDS011;36257;46.052;12.540;2024-01-30T00:40:41;24.23;;;14.10;;
40931;SDS011;36257;46.052;12.540;2024-01-30T00:43:06;43.43;;;20.37;;
40931;SDS011;36257;46.052;12.540;2024-01-30T00:45:32;43.07;;;20.83;;
40931;SDS011;36257;46.052;12.540;2024-01-30T00:47:59;39.42;;;20.40;;
40931;SDS011;36257;46.052;12.540;2024-01-30T00:50:24;39.67;;;19.97;;
40931;SDS011;36257;46.052;12.540;2024-01-30T00:52:50;39.20;;;21.20;;
40931;SDS011;36257;46.052;12.540;2024-01-30T00:55:16;29.43;;;16.80;;
40931;SDS011;36257;46.052;12.540;2024-01-30T00:57:41;22.90;;;14.50;;
40931;SDS011;36257;46.052;12.540;2024-01-30T01:00:07;17.87;;;13.20;;
40931;SDS011;36257;46.052;12.540;2024-01-30T01:02:37;14.68;;;12.02;;
40931;SDS011;36257;46.052;12.540;2024-01-30T01:05:04;14.93;;;11.97;;
40931;SDS011;36257;46.052;12.540;2024-01-30T01:07:30;19.37;;;13.27;;
40931;SDS011;36257;46.052;12.540;2024-01-30T01:09:56;19.93;;;13.50;;
40931;SDS011;36257;46.052;12.540;2024-01-30T01:12:22;15.27;;;12.10;;
40931;SDS011;36257;46.052;12.540;2024-01-30T01:14:47;19.50;;;12.97;;
40931;SDS011;36257;46.052;12.540;2024-01-30T01:17:13;22.93;;;14.00;;
40931;SDS011;36257;46.052;12.540;2024-01-30T01:19:38;22.80;;;15.07;;
40931;SDS011;36257;46.052;12.540;2024-01-30T01:22:04;19.20;;;13.47;;
40931;SDS011;36257;46.052;12.540;2024-01-30T01:24:31;16.03;;;12.30;;
40931;SDS011;36257;46.052;12.540;2024-01-30T01:26:58;14.55;;;11.65;;
40931;SDS011;36257;46.052;12.540;2024-01-30T01:29:23;14.70;;;11.60;;
40931;SDS011;36257;46.052;12.540;2024-01-30T01:31:58;13.27;;;10.30;;
40931;SDS011;36257;46.052;12.540;2024-01-30T01:34:24;16.23;;;12.20;;
40931;SDS011;36257;46.052;12.540;2024-01-30T01:36:50;12.90;;;10.13;;
40931;SDS011;36257;46.052;12.540;2024-01-30T01:39:16;13.37;;;10.87;;
40931;SDS011;36257;46.052;12.540;2024-01-30T01:41:42;11.97;;;10.67;;
40931;SDS011;36257;46.052;12.540;2024-01-30T01:44:08;15.20;;;11.83;;
40931;SDS011;36257;46.052;12.540;2024-01-30T01:46:34;18.00;;;13.40;;
40931;SDS011;36257;46.052;12.540;2024-01-30T01:49:00;13.57;;;11.37;;
40931;SDS011;36257;46.052;12.540;2024-01-30T01:51:29;8.50;;;7.70;;
40931;SDS011;36257;46.052;12.540;2024-01-30T01:53:57;9.93;;;7.40;;
40931;SDS011;36257;46.052;12.540;2024-01-30T01:56:25;8.03;;;7.23;;
40931;SDS011;36257;46.052;12.540;2024-01-30T01:58:54;8.75;;;8.05;;
40931;SDS011;36257;46.052;12.540;2024-01-30T02:01:20;7.63;;;6.90;;
40931;SDS011;36257;46.052;12.540;2024-01-30T02:03:46;8.23;;;7.50;;
40931;SDS011;36257;46.052;12.540;2024-01-30T02:06:15;8.47;;;7.70;;
40931;SDS011;36257;46.052;12.540;2024-01-30T02:08:42;7.43;;;6.83;;
40931;SDS011;36257;46.052;12.540;2024-01-30T02:11:07;8.00;;;7.27;;
40931;SDS011;36257;46.052;12.540;2024-01-30T02:13:35;7.30;;;6.70;;
40931;SDS011;36257;46.052;12.540;2024-01-30T02:16:01;7.77;;;6.97;;
40931;SDS011;36257;46.052;12.540;2024-01-30T02:18:27;7.60;;;6.57;;
40931;SDS011;36257;46.052;12.540;2024-01-30T02:20:53;6.83;;;6.27;;
40931;SDS011;36257;46.052;12.540;2024-01-30T02:23:21;7.00;;;6.40;;
40931;SDS011;36257;46.052;12.540;2024-01-30T02:25:50;6.53;;;6.03;;
40931;SDS011;36257;46.052;12.540;2024-01-30T02:30:43;5.97;;;5.50;;
40931;SDS011;36257;46.052;12.540;2024-01-30T02:33:09;5.33;;;4.93;;
40931;SDS011;36257;46.052;12.540;2024-01-30T02:35:35;7.20;;;6.60;;
40931;SDS011;36257;46.052;12.540;2024-01-30T02:38:01;7.23;;;6.40;;
40931;SDS011;36257;46.052;12.540;2024-01-30T02:40:26;6.50;;;5.87;;
40931;SDS011;36257;46.052;12.540;2024-01-30T02:42:52;7.17;;;6.57;;
40931;SDS011;36257;46.052;12.540;2024-01-30T02:45:18;6.80;;;6.23;;
40931;SDS011;36257;46.052;12.540;2024-01-30T02:47:43;6.40;;;5.90;;
40931;SDS011;36257;46.052;12.540;2024-01-30T02:50:09;5.97;;;5.47;;
40931;SDS011;36257;46.052;12.540;2024-01-30T02:52:35;7.00;;;6.60;;
40931;SDS011;36257;46.052;12.540;2024-01-30T02:55:01;5.07;;;4.63;;
40931;SDS011;36257;46.052;12.540;2024-01-30T02:57:27;5.50;;;5.10;;
40931;SDS011;36257;46.052;12.540;2024-01-30T02:59:53;6.77;;;6.33;;
40931;SDS011;36257;46.052;12.540;2024-01-30T03:02:19;5.63;;;5.23;;
40931;SDS011;36257;46.052;12.540;2024-01-30T03:04:45;5.67;;;5.30;;
40931;SDS011;36257;46.052;12.540;2024-01-30T03:07:11;6.17;;;5.67;;
40931;SDS011;36257;46.052;12.540;2024-01-30T03:09:36;6.33;;;5.83;;
40931;SDS011;36257;46.052;12.540;2024-01-30T03:12:02;5.90;;;5.33;;
40931;SDS011;36257;46.052;12.540;2024-01-30T03:14:30;6.10;;;5.70;;
40931;SDS011;36257;46.052;12.540;2024-01-30T03:16:56;5.57;;;5.13;;
40931;SDS011;36257;46.052;12.540;2024-01-30T03:19:22;5.50;;;5.13;;
40931;SDS011;36257;46.052;12.540;2024-01-30T03:21:48;5.27;;;4.97;;
40931;SDS011;36257;46.052;12.540;2024-01-30T03:24:14;6.27;;;5.67;;
40931;SDS011;36257;46.052;12.540;2024-01-30T03:26:39;5.60;;;5.13;;
40931;SDS011;36257;46.052;12.540;2024-01-30T03:29:05;5.47;;;5.07;;
40931;SDS011;36257;46.052;12.540;2024-01-30T03:31:31;6.27;;;5.10;;
40931;SDS011;36257;46.052;12.540;2024-01-30T03:33:57;4.87;;;4.57;;
40931;SDS011;36257;46.052;12.540;2024-01-30T03:36:23;5.87;;;5.40;;
40931;SDS011;36257;46.052;12.540;2024-01-30T03:38:48;6.73;;;6.23;;
40931;SDS011;36257;46.052;12.540;2024-01-30T03:41:14;6.00;;;5.67;;
40931;SDS011;36257;46.052;12.540;2024-01-30T03:43:40;6.17;;;5.67;;
40931;SDS011;36257;46.052;12.540;2024-01-30T03:46:05;5.03;;;4.63;;
40931;SDS011;36257;46.052;12.540;2024-01-30T03:48:31;6.17;;;5.77;;
40931;SDS011;36257;46.052;12.540;2024-01-30T03:50:57;6.00;;;5.67;;
40931;SDS011;36257;46.052;12.540;2024-01-30T03:53:23;5.47;;;5.07;;
40931;SDS011;36257;46.052;12.540;2024-01-30T03:55:48;5.37;;;4.97;;
40931;SDS011;36257;46.052;12.540;2024-01-30T03:58:14;6.03;;;5.63;;
40931;SDS011;36257;46.052;12.540;2024-01-30T04:00:40;5.67;;;5.27;;
40931;SDS011;36257;46.052;12.540;2024-01-30T04:03:06;5.33;;;5.03;;
40931;SDS011;36257;46.052;12.540;2024-01-30T04:05:32;5.60;;;5.30;;
40931;SDS011;36257;46.052;12.540;2024-01-30T04:07:58;5.67;;;5.37;;
40931;SDS011;36257;46.052;12.540;2024-01-30T04:10:24;4.87;;;4.57;;
40931;SDS011;36257;46.052;12.540;2024-01-30T04:12:52;5.53;;;5.23;;
40931;SDS011;36257;46.052;12.540;2024-01-30T04:15:19;5.17;;;4.93;;
40931;SDS011;36257;46.052;12.540;2024-01-30T04:17:44;5.23;;;4.93;;
40931;SDS011;36257;46.052;12.540;2024-01-30T04:20:14;4.60;;;4.30;;
40931;SDS011;36257;46.052;12.540;2024-01-30T04:22:46;5.40;;;4.93;;
40931;SDS011;36257;46.052;12.540;2024-01-30T04:25:12;4.77;;;4.47;;
40931;SDS011;36257;46.052;12.540;2024-01-30T04:27:38;5.13;;;4.90;;
40931;SDS011;36257;46.052;12.540;2024-01-30T04:30:04;5.63;;;5.23;;
40931;SDS011;36257;46.052;12.540;2024-01-30T04:32:31;5.33;;;5.03;;
40931;SDS011;36257;46.052;12.540;2024-01-30T04:34:57;4.67;;;4.37;;
40931;SDS011;36257;46.052;12.540;2024-01-30T04:37:23;5.43;;;5.03;;
40931;SDS011;36257;46.052;12.540;2024-01-30T04:39:48;5.60;;;5.20;;
40931;SDS011;36257;46.052;12.540;2024-01-30T04:42:14;5.47;;;5.10;;
40931;SDS011;36257;46.052;12.540;2024-01-30T04:44:39;5.53;;;5.13;;
40931;SDS011;36257;46.052;12.540;2024-01-30T04:47:05;5.57;;;5.23;;
40931;SDS011;36257;46.052;12.540;2024-01-30T04:49:33;5.47;;;5.03;;
40931;SDS011;36257;46.052;12.540;2024-01-30T04:51:59;5.27;;;4.87;;
40931;SDS011;36257;46.052;12.540;2024-01-30T04:54:25;6.17;;;5.57;;
40931;SDS011;36257;46.052;12.540;2024-01-30T04:56:51;5.63;;;5.30;;
40931;SDS011;36257;46.052;12.540;2024-01-30T04:59:16;5.17;;;4.77;;
40931;SDS011;36257;46.052;12.540;2024-01-30T05:01:42;4.63;;;4.30;;
40931;SDS011;36257;46.052;12.540;2024-01-30T05:04:08;5.60;;;5.20;;
40931;SDS011;36257;46.052;12.540;2024-01-30T05:06:34;5.00;;;4.70;;
40931;SDS011;36257;46.052;12.540;2024-01-30T05:09:00;5.17;;;4.77;;
40931;SDS011;36257;46.052;12.540;2024-01-30T05:11:25;5.30;;;4.97;;
40931;SDS011;36257;46.052;12.540;2024-01-30T05:13:51;5.27;;;4.87;;
40931;SDS011;36257;46.052;12.540;2024-01-30T05:16:17;6.33;;;5.47;;
40931;SDS011;36257;46.052;12.540;2024-01-30T05:18:43;5.87;;;5.57;;
40931;SDS011;36257;46.052;12.540;2024-01-30T05:21:08;5.23;;;4.93;;
40931;SDS011;36257;46.052;12.540;2024-01-30T05:23:35;5.30;;;4.90;;
40931;SDS011;36257;46.052;12.540;2024-01-30T05:26:01;4.67;;;4.37;;
40931;SDS011;36257;46.052;12.540;2024-01-30T05:28:27;5.13;;;4.83;;
40931;SDS011;36257;46.052;12.540;2024-01-30T05:30:56;4.77;;;4.47;;
40931;SDS011;36257;46.052;12.540;2024-01-30T05:33:22;5.63;;;5.30;;
40931;SDS011;36257;46.052;12.540;2024-01-30T05:35:47;4.73;;;4.43;;
40931;SDS011;36257;46.052;12.540;2024-01-30T05:38:13;5.00;;;4.70;;
40931;SDS011;36257;46.052;12.540;2024-01-30T05:40:41;4.95;;;4.65;;
40931;SDS011;36257;46.052;12.540;2024-01-30T05:43:06;5.30;;;4.80;;
40931;SDS011;36257;46.052;12.540;2024-01-30T05:45:33;5.67;;;5.27;;
40931;SDS011;36257;46.052;12.540;2024-01-30T05:50:25;18.63;;;15.33;;
40931;SDS011;36257;46.052;12.540;2024-01-30T05:52:52;13.50;;;12.07;;
40931;SDS011;36257;46.052;12.540;2024-01-30T05:55:17;9.87;;;8.87;;
40931;SDS011;36257;46.052;12.540;2024-01-30T05:57:43;6.10;;;5.67;;
40931;SDS011;36257;46.052;12.540;2024-01-30T06:00:09;6.67;;;6.07;;
40931;SDS011;36257;46.052;12.540;2024-01-30T06:02:35;6.57;;;6.07;;
40931;SDS011;36257;46.052;12.540;2024-01-30T06:05:01;6.23;;;5.40;;
40931;SDS011;36257;46.052;12.540;2024-01-30T06:07:26;6.57;;;5.30;;
40931;SDS011;36257;46.052;12.540;2024-01-30T06:09:52;5.87;;;5.37;;
40931;SDS011;36257;46.052;12.540;2024-01-30T06:12:18;5.63;;;5.13;;
40931;SDS011;36257;46.052;12.540;2024-01-30T06:14:44;6.03;;;5.33;;
40931;SDS011;36257;46.052;12.540;2024-01-30T06:17:09;6.93;;;6.33;;
40931;SDS011;36257;46.052;12.540;2024-01-30T06:19:37;7.32;;;6.72;;
40931;SDS011;36257;46.052;12.540;2024-01-30T06:22:05;6.80;;;5.97;;
40931;SDS011;36257;46.052;12.540;2024-01-30T06:24:31;6.03;;;5.33;;
40931;SDS011;36257;46.052;12.540;2024-01-30T06:26:57;5.93;;;5.33;;
40931;SDS011;36257;46.052;12.540;2024-01-30T06:29:22;13.10;;;10.83;;
40931;SDS011;36257;46.052;12.540;2024-01-30T06:31:49;9.45;;;8.55;;
40931;SDS011;36257;46.052;12.540;2024-01-30T06:34:15;6.10;;;5.50;;
40931;SDS011;36257;46.052;12.540;2024-01-30T06:36:41;5.90;;;5.50;;
40931;SDS011;36257;46.052;12.540;2024-01-30T06:39:07;5.07;;;4.70;;
40931;SDS011;36257;46.052;12.540;2024-01-30T06:41:32;4.90;;;4.60;;
40931;SDS011;36257;46.052;12.540;2024-01-30T06:43:58;4.83;;;4.53;;
40931;SDS011;36257;46.052;12.540;2024-01-30T06:46:24;5.50;;;5.20;;
40931;SDS011;36257;46.052;12.540;2024-01-30T06:48:49;4.97;;;4.67;;
40931;SDS011;36257;46.052;12.540;2024-01-30T06:51:15;5.57;;;4.73;;
40931;SDS011;36257;46.052;12.540;2024-01-30T06:53:41;4.87;;;4.47;;
40931;SDS011;36257;46.052;12.540;2024-01-30T06:56:07;5.37;;;4.93;;
40931;SDS011;36257;46.052;12.540;2024-01-30T06:58:33;5.85;;;5.43;;
40931;SDS011;36257;46.052;12.540;2024-01-30T07:00:59;5.33;;;4.93;;
40931;SDS011;36257;46.052;12.540;2024-01-30T07:03:25;5.20;;;4.90;;
40931;SDS011;36257;46.052;12.540;2024-01-30T07:05:50;4.33;;;4.13;;
40931;SDS011;36257;46.052;12.540;2024-01-30T07:08:16;5.10;;;4.70;;
40931;SDS011;36257;46.052;12.540;2024-01-30T07:10:43;5.60;;;5.13;;
40931;SDS011;36257;46.052;12.540;2024-01-30T07:13:09;5.73;;;5.33;;
40931;SDS011;36257;46.052;12.540;2024-01-30T07:15:36;6.55;;;6.05;;
40931;SDS011;36257;46.052;12.540;2024-01-30T07:18:04;4.70;;;4.33;;
40931;SDS011;36257;46.052;12.540;2024-01-30T07:20:30;5.03;;;4.63;;
40931;SDS011;36257;46.052;12.540;2024-01-30T07:23:00;5.53;;;5.23;;
40931;SDS011;36257;46.052;12.540;2024-01-30T07:25:25;5.37;;;4.87;;
40931;SDS011;36257;46.052;12.540;2024-01-30T07:27:55;6.63;;;5.63;;
40931;SDS011;36257;46.052;12.540;2024-01-30T07:30:21;6.03;;;5.43;;
40931;SDS011;36257;46.052;12.540;2024-01-30T07:32:48;5.72;;;5.25;;
40931;SDS011;36257;46.052;12.540;2024-01-30T07:35:14;5.43;;;5.03;;
40931;SDS011;36257;46.052;12.540;2024-01-30T07:37:39;5.97;;;5.57;;
40931;SDS011;36257;46.052;12.540;2024-01-30T07:40:05;7.10;;;6.13;;
40931;SDS011;36257;46.052;12.540;2024-01-30T07:42:32;7.20;;;6.50;;
40931;SDS011;36257;46.052;12.540;2024-01-30T07:44:58;7.30;;;6.80;;
40931;SDS011;36257;46.052;12.540;2024-01-30T07:47:24;7.43;;;6.73;;
40931;SDS011;36257;46.052;12.540;2024-01-30T07:49:50;7.50;;;6.60;;
40931;SDS011;36257;46.052;12.540;2024-01-30T07:52:16;8.40;;;7.00;;
40931;SDS011;36257;46.052;12.540;2024-01-30T07:54:42;8.40;;;7.57;;
40931;SDS011;36257;46.052;12.540;2024-01-30T07:57:07;8.80;;;7.83;;
40931;SDS011;36257;46.052;12.540;2024-01-30T07:59:33;9.63;;;8.57;;
40931;SDS011;36257;46.052;12.540;2024-01-30T08:01:58;9.97;;;8.97;;
40931;SDS011;36257;46.052;12.540;2024-01-30T08:04:24;10.63;;;9.40;;
40931;SDS011;36257;46.052;12.540;2024-01-30T08:06:50;13.33;;;10.37;;
40931;SDS011;36257;46.052;12.540;2024-01-30T08:09:15;15.60;;;10.40;;
40931;SDS011;36257;46.052;12.540;2024-01-30T08:11:41;13.83;;;11.17;;
40931;SDS011;36257;46.052;12.540;2024-01-30T08:14:06;13.27;;;10.67;;
40931;SDS011;36257;46.052;12.540;2024-01-30T08:16:32;14.73;;;11.33;;
40931;SDS011;36257;46.052;12.540;2024-01-30T08:18:58;13.35;;;11.02;;
40931;SDS011;36257;46.052;12.540;2024-01-30T08:21:23;16.23;;;10.90;;
40931;SDS011;36257;46.052;12.540;2024-01-30T08:23:49;15.88;;;11.70;;
40931;SDS011;36257;46.052;12.540;2024-01-30T08:26:15;15.00;;;11.05;;
40931;SDS011;36257;46.052;12.540;2024-01-30T08:28:40;11.88;;;9.90;;
40931;SDS011;36257;46.052;12.540;2024-01-30T08:31:06;13.90;;;9.85;;
40931;SDS011;36257;46.052;12.540;2024-01-30T08:33:31;12.48;;;9.43;;
40931;SDS011;36257;46.052;12.540;2024-01-30T08:35:57;15.73;;;10.75;;
40931;SDS011;36257;46.052;12.540;2024-01-30T08:38:23;13.88;;;10.27;;
40931;SDS011;36257;46.052;12.540;2024-01-30T08:40:48;14.60;;;8.93;;
40931;SDS011;36257;46.052;12.540;2024-01-30T08:43:14;13.75;;;9.80;;
40931;SDS011;36257;46.052;12.540;2024-01-30T08:45:40;14.30;;;9.45;;
40931;SDS011;36257;46.052;12.540;2024-01-30T08:48:06;11.32;;;9.20;;
40931;SDS011;36257;46.052;12.540;2024-01-30T08:50:33;13.20;;;9.35;;
40931;SDS011;36257;46.052;12.540;2024-01-30T08:52:59;13.70;;;10.27;;
40931;SDS011;36257;46.052;12.540;2024-01-30T08:55:25;16.95;;;10.82;;
40931;SDS011;36257;46.052;12.540;2024-01-30T08:57:50;14.40;;;10.18;;
40931;SDS011;36257;46.052;12.540;2024-01-30T09:00:17;15.30;;;10.85;;
40931;SDS011;36257;46.052;12.540;2024-01-30T09:02:43;14.35;;;10.68;;
40931;SDS011;36257;46.052;12.540;2024-01-30T09:05:08;16.90;;;11.35;;
40931;SDS011;36257;46.052;12.540;2024-01-30T09:07:34;15.90;;;11.52;;
40931;SDS011;36257;46.052;12.540;2024-01-30T09:10:00;18.48;;;11.65;;
40931;SDS011;36257;46.052;12.540;2024-01-30T09:12:25;19.83;;;11.38;;
40931;SDS011;36257;46.052;12.540;2024-01-30T09:14:51;16.20;;;13.15;;
40931;SDS011;36257;46.052;12.540;2024-01-30T09:17:16;20.60;;;12.98;;
40931;SDS011;36257;46.052;12.540;2024-01-30T09:19:42;19.08;;;12.93;;
40931;SDS011;36257;46.052;12.540;2024-01-30T09:22:08;18.13;;;13.43;;
40931;SDS011;36257;46.052;12.540;2024-01-30T09:24:33;15.93;;;12.45;;
40931;SDS011;36257;46.052;12.540;2024-01-30T09:26:59;17.35;;;13.93;;
40931;SDS011;36257;46.052;12.540;2024-01-30T09:29:25;21.35;;;14.90;;
40931;SDS011;36257;46.052;12.540;2024-01-30T09:31:51;22.48;;;15.52;;
40931;SDS011;36257;46.052;12.540;2024-01-30T09:34:17;22.13;;;15.02;;
40931;SDS011;36257;46.052;12.540;2024-01-30T09:36:42;18.95;;;12.75;;
40931;SDS011;36257;46.052;12.540;2024-01-30T09:39:08;21.27;;;14.57;;
40931;SDS011;36257;46.052;12.540;2024-01-30T09:41:35;19.98;;;13.43;;
40931;SDS011;36257;46.052;12.540;2024-01-30T09:44:13;21.50;;;13.27;;
40931;SDS011;36257;46.052;12.540;2024-01-30T09:46:41;24.70;;;15.20;;
40931;SDS011;36257;46.052;12.540;2024-01-30T09:49:08;17.50;;;12.70;;
40931;SDS011;36257;46.052;12.540;2024-01-30T09:51:34;18.88;;;12.85;;
40931;SDS011;36257;46.052;12.540;2024-01-30T09:54:01;20.50;;;13.40;;
40931;SDS011;36257;46.052;12.540;2024-01-30T09:56:28;21.20;;;14.48;;
40931;SDS011;36257;46.052;12.540;2024-01-30T09:58:54;21.00;;;14.10;;
40931;SDS011;36257;46.052;12.540;2024-01-30T10:01:19;21.83;;;15.25;;
40931;SDS011;36257;46.052;12.540;2024-01-30T10:03:45;20.05;;;13.73;;
40931;SDS011;36257;46.052;12.540;2024-01-30T10:06:11;24.40;;;15.07;;
40931;SDS011;36257;46.052;12.540;2024-01-30T10:08:37;22.75;;;15.98;;
40931;SDS011;36257;46.052;12.540;2024-01-30T10:11:03;24.73;;;17.42;;
40931;SDS011;36257;46.052;12.540;2024-01-30T10:13:29;25.85;;;16.23;;
40931;SDS011;36257;46.052;12.540;2024-01-30T10:15:54;26.25;;;17.38;;
40931;SDS011;36257;46.052;12.540;2024-01-30T10:18:24;26.07;;;17.70;;
40931;SDS011;36257;46.052;12.540;2024-01-30T10:20:50;21.83;;;15.63;;
40931;SDS011;36257;46.052;12.540;2024-01-30T10:23:16;27.13;;;16.92;;
40931;SDS011;36257;46.052;12.540;2024-01-30T10:28:09;26.17;;;17.40;;
40931;SDS011;36257;46.052;12.540;2024-01-30T10:30:36;21.25;;;15.43;;
40931;SDS011;36257;46.052;12.540;2024-01-30T10:33:01;25.48;;;16.40;;
40931;SDS011;36257;46.052;12.540;2024-01-30T10:35:27;27.70;;;18.35;;
40931;SDS011;36257;46.052;12.540;2024-01-30T10:37:53;23.40;;;16.83;;
40931;SDS011;36257;46.052;12.540;2024-01-30T10:40:23;24.60;;;17.65;;
40931;SDS011;36257;46.052;12.540;2024-01-30T10:42:53;25.67;;;17.83;;
40931;SDS011;36257;46.052;12.540;2024-01-30T10:45:21;24.90;;;16.08;;
40931;SDS011;36257;46.052;12.540;2024-01-30T10:47:52;25.65;;;18.30;;
40931;SDS011;36257;46.052;12.540;2024-01-30T10:50:21;25.02;;;16.63;;
40931;SDS011;36257;46.052;12.540;2024-01-30T10:52:50;26.33;;;18.50;;
40931;SDS011;36257;46.052;12.540;2024-01-30T10:55:16;24.45;;;16.77;;
40931;SDS011;36257;46.052;12.540;2024-01-30T10:57:43;21.75;;;16.10;;
40931;SDS011;36257;46.052;12.540;2024-01-30T11:00:10;25.73;;;17.23;;
40931;SDS011;36257;46.052;12.540;2024-01-30T11:02:39;26.88;;;17.83;;
40931;SDS011;36257;46.052;12.540;2024-01-30T11:05:07;26.88;;;18.30;;
40931;SDS011;36257;46.052;12.540;2024-01-30T11:07:33;26.13;;;17.88;;
40931;SDS011;36257;46.052;12.540;2024-01-30T11:12:26;26.70;;;18.65;;
40931;SDS011;36257;46.052;12.540;2024-01-30T11:20:09;26.35;;;17.30;;
40931;SDS011;36257;46.052;12.540;2024-01-30T11:22:36;29.33;;;18.38;;
40931;SDS011;36257;46.052;12.540;2024-01-30T11:25:02;23.95;;;17.40;;
40931;SDS011;36257;46.052;12.540;2024-01-30T11:27:30;25.27;;;16.88;;
40931;SDS011;36257;46.052;12.540;2024-01-30T11:30:00;23.88;;;16.88;;
40931;SDS011;36257;46.052;12.540;2024-01-30T11:32:27;20.10;;;15.40;;
40931;SDS011;36257;46.052;12.540;2024-01-30T11:34:53;23.27;;;15.07;;
40931;SDS011;36257;46.052;12.540;2024-01-30T11:37:20;22.87;;;13.93;;
40931;SDS011;36257;46.052;12.540;2024-01-30T11:39:49;21.38;;;14.15;;
40931;SDS011;36257;46.052;12.540;2024-01-30T11:42:16;19.83;;;13.80;;
40931;SDS011;36257;46.052;12.540;2024-01-30T11:44:46;19.45;;;13.93;;
40931;SDS011;36257;46.052;12.540;2024-01-30T11:47:12;21.80;;;14.60;;
40931;SDS011;36257;46.052;12.540;2024-01-30T11:49:39;24.17;;;14.93;;
40931;SDS011;36257;46.052;12.540;2024-01-30T11:52:05;22.80;;;14.60;;
40931;SDS011;36257;46.052;12.540;2024-01-30T11:54:30;19.25;;;14.50;;
40931;SDS011;36257;46.052;12.540;2024-01-30T11:56:56;23.38;;;15.95;;
40931;SDS011;36257;46.052;12.540;2024-01-30T11:59:22;19.95;;;13.75;;
40931;SDS011;36257;46.052;12.540;2024-01-30T12:01:47;20.67;;;14.05;;
40931;SDS011;36257;46.052;12.540;2024-01-30T12:04:14;20.92;;;13.18;;
40931;SDS011;36257;46.052;12.540;2024-01-30T12:06:40;19.00;;;13.27;;
40931;SDS011;36257;46.052;12.540;2024-01-30T12:09:06;21.70;;;14.13;;
40931;SDS011;36257;46.052;12.540;2024-01-30T12:11:47;20.17;;;13.95;;
40931;SDS011;36257;46.052;12.540;2024-01-30T12:14:14;22.92;;;14.30;;
40931;SDS011;36257;46.052;12.540;2024-01-30T12:16:41;19.75;;;13.50;;
40931;SDS011;36257;46.052;12.540;2024-01-30T12:19:07;24.30;;;14.90;;
40931;SDS011;36257;46.052;12.540;2024-01-30T12:21:33;25.17;;;14.30;;
40931;SDS011;36257;46.052;12.540;2024-01-30T12:23:59;25.98;;;16.15;;
40931;SDS011;36257;46.052;12.540;2024-01-30T12:26:25;19.73;;;14.27;;
40931;SDS011;36257;46.052;12.540;2024-01-30T12:28:54;30.17;;;14.88;;
40931;SDS011;36257;46.052;12.540;2024-01-30T12:31:27;21.30;;;15.75;;
40931;SDS011;36257;46.052;12.540;2024-01-30T12:33:53;19.05;;;15.02;;
40931;SDS011;36257;46.052;12.540;2024-01-30T12:36:20;24.20;;;16.23;;
40931;SDS011;36257;46.052;12.540;2024-01-30T12:38:46;27.40;;;15.73;;
40931;SDS011;36257;46.052;12.540;2024-01-30T12:41:12;21.48;;;16.10;;
40931;SDS011;36257;46.052;12.540;2024-01-30T12:43:38;23.73;;;15.52;;
40931;SDS011;36257;46.052;12.540;2024-01-30T12:46:03;24.15;;;15.70;;
40931;SDS011;36257;46.052;12.540;2024-01-30T12:48:30;19.38;;;14.68;;
40931;SDS011;36257;46.052;12.540;2024-01-30T12:50:56;26.17;;;14.73;;
40931;SDS011;36257;46.052;12.540;2024-01-30T12:53:22;20.63;;;14.52;;
40931;SDS011;36257;46.052;12.540;2024-01-30T12:55:47;19.17;;;15.15;;
40931;SDS011;36257;46.052;12.540;2024-01-30T12:58:14;23.50;;;15.38;;
40931;SDS011;36257;46.052;12.540;2024-01-30T13:00:40;20.55;;;14.38;;
40931;SDS011;36257;46.052;12.540;2024-01-30T13:03:08;21.38;;;14.45;;
40931;SDS011;36257;46.052;12.540;2024-01-30T13:05:35;24.80;;;14.05;;
40931;SDS011;36257;46.052;12.540;2024-01-30T13:08:00;18.52;;;13.50;;
40931;SDS011;36257;46.052;12.540;2024-01-30T13:10:26;20.52;;;13.50;;
40931;SDS011;36257;46.052;12.540;2024-01-30T13:12:52;17.55;;;13.32;;
40931;SDS011;36257;46.052;12.540;2024-01-30T13:15:18;19.08;;;14.43;;
40931;SDS011;36257;46.052;12.540;2024-01-30T13:17:44;17.48;;;13.52;;
40931;SDS011;36257;46.052;12.540;2024-01-30T13:20:12;19.90;;;14.13;;
40931;SDS011;36257;46.052;12.540;2024-01-30T13:22:41;21.65;;;14.60;;
40931;SDS011;36257;46.052;12.540;2024-01-30T13:25:08;18.90;;;14.17;;
40931;SDS011;36257;46.052;12.540;2024-01-30T13:27:34;21.05;;;14.45;;
40931;SDS011;36257;46.052;12.540;2024-01-30T13:30:00;21.45;;;13.95;;
40931;SDS011;36257;46.052;12.540;2024-01-30T13:32:26;18.52;;;13.35;;
40931;SDS011;36257;46.052;12.540;2024-01-30T13:34:51;19.52;;;13.80;;
40931;SDS011;36257;46.052;12.540;2024-01-30T13:37:17;17.70;;;12.70;;
40931;SDS011;36257;46.052;12.540;2024-01-30T13:39:43;21.52;;;12.93;;
40931;SDS011;36257;46.052;12.540;2024-01-30T13:42:08;20.40;;;14.15;;
40931;SDS011;36257;46.052;12.540;2024-01-30T13:44:35;20.60;;;13.13;;
40931;SDS011;36257;46.052;12.540;2024-01-30T13:47:01;19.80;;;14.23;;
40931;SDS011;36257;46.052;12.540;2024-01-30T13:49:27;18.70;;;12.70;;
40931;SDS011;36257;46.052;12.540;2024-01-30T13:51:52;16.83;;;12.18;;
40931;SDS011;36257;46.052;12.540;2024-01-30T13:54:18;16.70;;;12.48;;
40931;SDS011;36257;46.052;12.540;2024-01-30T13:56:44;18.88;;;13.32;;
40931;SDS011;36257;46.052;12.540;2024-01-30T13:59:10;17.13;;;13.00;;
40931;SDS011;36257;46.052;12.540;2024-01-30T14:01:35;17.20;;;12.65;;
40931;SDS011;36257;46.052;12.540;2024-01-30T14:04:01;17.92;;;12.30;;
40931;SDS011;36257;46.052;12.540;2024-01-30T14:06:27;20.40;;;14.40;;
40931;SDS011;36257;46.052;12.540;2024-01-30T14:08:53;18.40;;;12.95;;
40931;SDS011;36257;46.052;12.540;2024-01-30T14:11:18;18.88;;;12.75;;
40931;SDS011;36257;46.052;12.540;2024-01-30T14:13:44;23.02;;;17.02;;
40931;SDS011;36257;46.052;12.540;2024-01-30T14:16:10;21.52;;;13.80;;
40931;SDS011;36257;46.052;12.540;2024-01-30T14:18:36;19.05;;;13.70;;
40931;SDS011;36257;46.052;12.540;2024-01-30T14:21:01;16.95;;;13.80;;
40931;SDS011;36257;46.052;12.540;2024-01-30T14:23:27;18.92;;;13.55;;
40931;SDS011;36257;46.052;12.540;2024-01-30T14:25:53;20.70;;;14.35;;
40931;SDS011;36257;46.052;12.540;2024-01-30T14:28:19;17.65;;;13.52;;
40931;SDS011;36257;46.052;12.540;2024-01-30T14:30:44;20.38;;;13.80;;